sensor_id;sensor_type;location;lat;lon;timestamp;temperature;humidity
13148;DHT22;6639;50.956;4.242;2024-01-10T00:02:19;1.10;93.50
13148;DHT22;6639;50.956;4.242;2024-01-10T00:04:47;1.30;93.60
13148;DHT22;6639;50.956;4.242;2024-01-10T00:07:17;2.00;93.90
13148;DHT22;6639;50.956;4.242;2024-01-10T00:09:45;2.10;92.40
13148;DHT22;6639;50.956;4.242;2024-01-10T00:12:14;2.20;92.10
13148;DHT22;6639;50.956;4.242;2024-01-10T00:14:41;2.40;92.40
13148;DHT22;6639;50.956;4.242;2024-01-10T00:17:08;2.60;92.20
13148;DHT22;6639;50.956;4.242;2024-01-10T00:19:35;2.40;92.10
13148;DHT22;6639;50.956;4.242;2024-01-10T00:22:02;2.50;91.80
13148;DHT22;6639;50.956;4.242;2024-01-10T00:24:32;2.30;92.00
13148;DHT22;6639;50.956;4.242;2024-01-10T00:26:59;2.10;92.00
13148;DHT22;6639;50.956;4.242;2024-01-10T00:29:27;2.00;92.10
13148;DHT22;6639;50.956;4.242;2024-01-10T00:31:54;2.60;92.30
13148;DHT22;6639;50.956;4.242;2024-01-10T00:34:25;3.20;91.90
13148;DHT22;6639;50.956;4.242;2024-01-10T00:36:52;2.70;91.00
13148;DHT22;6639;50.956;4.242;2024-01-10T00:39:19;2.90;91.70
13148;DHT22;6639;50.956;4.242;2024-01-10T00:41:48;3.10;91.30
13148;DHT22;6639;50.956;4.242;2024-01-10T00:44:15;2.80;91.00
13148;DHT22;6639;50.956;4.242;2024-01-10T00:46:43;3.00;90.80
13148;DHT22;6639;50.956;4.242;2024-01-10T00:49:10;3.60;91.30
13148;DHT22;6639;50.956;4.242;2024-01-10T00:51:37;3.80;90.80
13148;DHT22;6639;50.956;4.242;2024-01-10T00:54:04;4.00;90.30
13148;DHT22;6639;50.956;4.242;2024-01-10T00:56:32;4.10;89.90
13148;DHT22;6639;50.956;4.242;2024-01-10T00:59:00;3.90;89.70
13148;DHT22;6639;50.956;4.242;2024-01-10T01:01:29;3.90;90.10
13148;DHT22;6639;50.956;4.242;2024-01-10T01:03:57;3.70;89.50
13148;DHT22;6639;50.956;4.242;2024-01-10T01:06:24;4.00;90.00
13148;DHT22;6639;50.956;4.242;2024-01-10T01:08:51;4.20;89.80
13148;DHT22;6639;50.956;4.242;2024-01-10T01:11:20;4.10;89.50
13148;DHT22;6639;50.956;4.242;2024-01-10T01:13:48;4.20;89.40
13148;DHT22;6639;50.956;4.242;2024-01-10T01:16:16;4.20;89.00
13148;DHT22;6639;50.956;4.242;2024-01-10T01:18:45;4.40;89.20
13148;DHT22;6639;50.956;4.242;2024-01-10T01:21:13;4.20;88.20
13148;DHT22;6639;50.956;4.242;2024-01-10T01:23:40;4.00;88.60
13148;DHT22;6639;50.956;4.242;2024-01-10T01:26:07;3.90;89.30
13148;DHT22;6639;50.956;4.242;2024-01-10T01:28:34;3.80;88.90
13148;DHT22;6639;50.956;4.242;2024-01-10T01:31:01;3.80;89.60
13148;DHT22;6639;50.956;4.242;2024-01-10T01:33:31;3.90;89.60
13148;DHT22;6639;50.956;4.242;2024-01-10T01:35:59;4.10;89.20
13148;DHT22;6639;50.956;4.242;2024-01-10T01:38:26;4.40;89.20
13148;DHT22;6639;50.956;4.242;2024-01-10T01:40:53;4.40;88.80
13148;DHT22;6639;50.956;4.242;2024-01-10T01:43:22;4.50;88.60
13148;DHT22;6639;50.956;4.242;2024-01-10T01:45:51;4.60;88.40
13148;DHT22;6639;50.956;4.242;2024-01-10T01:48:20;4.60;88.30
13148;DHT22;6639;50.956;4.242;2024-01-10T01:50:53;4.70;88.30
13148;DHT22;6639;50.956;4.242;2024-01-10T01:53:22;4.50;87.60
13148;DHT22;6639;50.956;4.242;2024-01-10T01:55:50;4.50;87.70
13148;DHT22;6639;50.956;4.242;2024-01-10T01:58:18;4.60;87.70
13148;DHT22;6639;50.956;4.242;2024-01-10T02:00:46;4.30;87.40
13148;DHT22;6639;50.956;4.242;2024-01-10T02:03:13;4.60;88.10
13148;DHT22;6639;50.956;4.242;2024-01-10T02:05:42;4.60;87.80
13148;DHT22;6639;50.956;4.242;2024-01-10T02:08:10;4.70;87.70
13148;DHT22;6639;50.956;4.242;2024-01-10T02:10:40;4.60;87.10
13148;DHT22;6639;50.956;4.242;2024-01-10T02:13:07;4.60;87.10
13148;DHT22;6639;50.956;4.242;2024-01-10T02:15:39;4.50;87.20
13148;DHT22;6639;50.956;4.242;2024-01-10T02:18:07;4.60;87.50
13148;DHT22;6639;50.956;4.242;2024-01-10T02:20:36;4.60;87.20
13148;DHT22;6639;50.956;4.242;2024-01-10T02:23:04;4.60;87.20
13148;DHT22;6639;50.956;4.242;2024-01-10T02:25:32;4.70;87.40
13148;DHT22;6639;50.956;4.242;2024-01-10T02:28:00;4.70;87.20
13148;DHT22;6639;50.956;4.242;2024-01-10T02:30:27;4.60;87.90
13148;DHT22;6639;50.956;4.242;2024-01-10T02:32:54;4.60;86.90
13148;DHT22;6639;50.956;4.242;2024-01-10T02:35:21;4.60;87.30
13148;DHT22;6639;50.956;4.242;2024-01-10T02:37:48;4.50;87.20
13148;DHT22;6639;50.956;4.242;2024-01-10T02:40:20;4.60;87.50
13148;DHT22;6639;50.956;4.242;2024-01-10T02:42:48;4.60;87.30
13148;DHT22;6639;50.956;4.242;2024-01-10T02:45:16;4.60;87.30
13148;DHT22;6639;50.956;4.242;2024-01-10T02:47:44;4.60;87.00
13148;DHT22;6639;50.956;4.242;2024-01-10T02:50:12;4.50;86.80
13148;DHT22;6639;50.956;4.242;2024-01-10T02:52:39;4.60;86.70
13148;DHT22;6639;50.956;4.242;2024-01-10T02:55:06;4.60;86.90
13148;DHT22;6639;50.956;4.242;2024-01-10T02:57:33;4.60;86.80
13148;DHT22;6639;50.956;4.242;2024-01-10T03:00:02;4.40;86.80
13148;DHT22;6639;50.956;4.242;2024-01-10T03:02:30;4.40;87.40
13148;DHT22;6639;50.956;4.242;2024-01-10T03:04:57;4.50;87.30
13148;DHT22;6639;50.956;4.242;2024-01-10T03:07:23;4.40;87.40
13148;DHT22;6639;50.956;4.242;2024-01-10T03:09:52;4.40;87.40
13148;DHT22;6639;50.956;4.242;2024-01-10T03:12:19;4.40;87.20
13148;DHT22;6639;50.956;4.242;2024-01-10T03:14:46;4.50;87.40
13148;DHT22;6639;50.956;4.242;2024-01-10T03:17:16;4.60;87.20
13148;DHT22;6639;50.956;4.242;2024-01-10T03:19:43;4.30;87.70
13148;DHT22;6639;50.956;4.242;2024-01-10T03:22:12;4.30;87.10
13148;DHT22;6639;50.956;4.242;2024-01-10T03:24:39;4.20;86.70
13148;DHT22;6639;50.956;4.242;2024-01-10T03:27:06;4.10;87.40
13148;DHT22;6639;50.956;4.242;2024-01-10T03:29:32;4.20;87.40
13148;DHT22;6639;50.956;4.242;2024-01-10T03:32:00;4.30;87.80
13148;DHT22;6639;50.956;4.242;2024-01-10T03:34:29;4.20;88.30
13148;DHT22;6639;50.956;4.242;2024-01-10T03:36:56;3.90;87.40
13148;DHT22;6639;50.956;4.242;2024-01-10T03:39:22;3.60;87.20
13148;DHT22;6639;50.956;4.242;2024-01-10T03:41:49;3.70;88.50
13148;DHT22;6639;50.956;4.242;2024-01-10T03:44:16;3.90;88.20
13148;DHT22;6639;50.956;4.242;2024-01-10T03:46:43;3.40;87.90
13148;DHT22;6639;50.956;4.242;2024-01-10T03:49:10;3.60;88.50
13148;DHT22;6639;50.956;4.242;2024-01-10T03:51:38;3.80;88.10
13148;DHT22;6639;50.956;4.242;2024-01-10T03:54:06;3.80;87.60
13148;DHT22;6639;50.956;4.242;2024-01-10T03:56:32;3.00;88.30
13148;DHT22;6639;50.956;4.242;2024-01-10T03:58:59;2.70;89.50
13148;DHT22;6639;50.956;4.242;2024-01-10T04:01:27;2.90;90.00
13148;DHT22;6639;50.956;4.242;2024-01-10T04:03:53;2.60;89.60
13148;DHT22;6639;50.956;4.242;2024-01-10T04:06:20;2.50;90.30
13148;DHT22;6639;50.956;4.242;2024-01-10T04:08:49;2.00;90.40
13148;DHT22;6639;50.956;4.242;2024-01-10T04:11:15;2.20;90.80
13148;DHT22;6639;50.956;4.242;2024-01-10T04:13:42;1.90;90.30
13148;DHT22;6639;50.956;4.242;2024-01-10T04:16:10;2.00;91.00
13148;DHT22;6639;50.956;4.242;2024-01-10T04:18:37;2.10;90.80
13148;DHT22;6639;50.956;4.242;2024-01-10T04:21:04;2.50;91.10
13148;DHT22;6639;50.956;4.242;2024-01-10T04:23:30;2.50;90.70
13148;DHT22;6639;50.956;4.242;2024-01-10T04:26:01;2.00;90.70
13148;DHT22;6639;50.956;4.242;2024-01-10T04:28:28;2.00;91.10
13148;DHT22;6639;50.956;4.242;2024-01-10T04:30:55;2.00;91.10
13148;DHT22;6639;50.956;4.242;2024-01-10T04:33:21;1.90;91.20
13148;DHT22;6639;50.956;4.242;2024-01-10T04:35:48;1.80;91.70
13148;DHT22;6639;50.956;4.242;2024-01-10T04:38:14;2.10;91.20
13148;DHT22;6639;50.956;4.242;2024-01-10T04:40:42;2.20;90.90
13148;DHT22;6639;50.956;4.242;2024-01-10T04:43:10;2.00;91.30
13148;DHT22;6639;50.956;4.242;2024-01-10T04:45:37;1.80;91.40
13148;DHT22;6639;50.956;4.242;2024-01-10T04:48:04;1.70;91.20
13148;DHT22;6639;50.956;4.242;2024-01-10T04:50:31;1.60;91.60
13148;DHT22;6639;50.956;4.242;2024-01-10T04:52:58;1.60;92.30
13148;DHT22;6639;50.956;4.242;2024-01-10T04:55:26;1.90;92.00
13148;DHT22;6639;50.956;4.242;2024-01-10T04:57:53;2.00;91.40
13148;DHT22;6639;50.956;4.242;2024-01-10T05:00:21;2.30;91.20
13148;DHT22;6639;50.956;4.242;2024-01-10T05:02:47;2.50;91.10
13148;DHT22;6639;50.956;4.242;2024-01-10T05:05:14;2.60;90.80
13148;DHT22;6639;50.956;4.242;2024-01-10T05:07:41;2.80;90.70
13148;DHT22;6639;50.956;4.242;2024-01-10T05:10:08;2.70;90.50
13148;DHT22;6639;50.956;4.242;2024-01-10T05:12:35;2.50;90.50
13148;DHT22;6639;50.956;4.242;2024-01-10T05:15:02;2.60;90.80
13148;DHT22;6639;50.956;4.242;2024-01-10T05:17:31;2.90;90.80
13148;DHT22;6639;50.956;4.242;2024-01-10T05:19:58;3.20;90.50
13148;DHT22;6639;50.956;4.242;2024-01-10T05:22:24;3.30;90.30
13148;DHT22;6639;50.956;4.242;2024-01-10T05:24:52;3.60;90.20
13148;DHT22;6639;50.956;4.242;2024-01-10T05:27:18;3.40;89.90
13148;DHT22;6639;50.956;4.242;2024-01-10T05:29:44;3.50;90.00
13148;DHT22;6639;50.956;4.242;2024-01-10T05:32:11;3.20;89.00
13148;DHT22;6639;50.956;4.242;2024-01-10T05:34:40;2.80;90.20
13148;DHT22;6639;50.956;4.242;2024-01-10T05:37:06;2.70;90.40
13148;DHT22;6639;50.956;4.242;2024-01-10T05:39:33;3.10;90.40
13148;DHT22;6639;50.956;4.242;2024-01-10T05:42:00;3.30;90.00
13148;DHT22;6639;50.956;4.242;2024-01-10T05:44:28;2.90;90.10
13148;DHT22;6639;50.956;4.242;2024-01-10T05:46:55;2.90;90.60
13148;DHT22;6639;50.956;4.242;2024-01-10T05:49:25;2.70;90.00
13148;DHT22;6639;50.956;4.242;2024-01-10T05:51:53;2.50;90.70
13148;DHT22;6639;50.956;4.242;2024-01-10T05:54:20;2.30;90.60
13148;DHT22;6639;50.956;4.242;2024-01-10T05:56:47;2.20;90.70
13148;DHT22;6639;50.956;4.242;2024-01-10T05:59:15;1.90;90.70
13148;DHT22;6639;50.956;4.242;2024-01-10T06:01:42;1.60;91.70
13148;DHT22;6639;50.956;4.242;2024-01-10T06:04:09;2.00;91.90
13148;DHT22;6639;50.956;4.242;2024-01-10T06:06:36;1.90;91.30
13148;DHT22;6639;50.956;4.242;2024-01-10T06:09:04;2.00;91.30
13148;DHT22;6639;50.956;4.242;2024-01-10T06:11:31;2.30;91.20
13148;DHT22;6639;50.956;4.242;2024-01-10T06:13:58;2.40;91.00
13148;DHT22;6639;50.956;4.242;2024-01-10T06:16:25;2.00;90.60
13148;DHT22;6639;50.956;4.242;2024-01-10T06:18:52;1.90;91.10
13148;DHT22;6639;50.956;4.242;2024-01-10T06:21:19;1.00;91.60
13148;DHT22;6639;50.956;4.242;2024-01-10T06:23:45;1.20;92.80
13148;DHT22;6639;50.956;4.242;2024-01-10T06:26:14;2.10;92.20
13148;DHT22;6639;50.956;4.242;2024-01-10T06:28:42;1.70;91.50
13148;DHT22;6639;50.956;4.242;2024-01-10T06:31:09;1.90;91.50
13148;DHT22;6639;50.956;4.242;2024-01-10T06:33:36;1.90;91.70
13148;DHT22;6639;50.956;4.242;2024-01-10T06:36:04;2.20;91.50
13148;DHT22;6639;50.956;4.242;2024-01-10T06:38:31;2.40;91.20
13148;DHT22;6639;50.956;4.242;2024-01-10T06:40:58;2.30;91.20
13148;DHT22;6639;50.956;4.242;2024-01-10T06:43:27;1.90;91.20
13148;DHT22;6639;50.956;4.242;2024-01-10T06:45:55;1.60;91.20
13148;DHT22;6639;50.956;4.242;2024-01-10T06:48:22;1.60;92.20
13148;DHT22;6639;50.956;4.242;2024-01-10T06:50:49;2.10;92.00
13148;DHT22;6639;50.956;4.242;2024-01-10T06:53:16;2.20;91.30
13148;DHT22;6639;50.956;4.242;2024-01-10T06:55:42;1.80;91.30
13148;DHT22;6639;50.956;4.242;2024-01-10T06:58:09;1.80;91.30
13148;DHT22;6639;50.956;4.242;2024-01-10T07:00:38;2.10;91.50
13148;DHT22;6639;50.956;4.242;2024-01-10T07:03:04;2.10;91.50
13148;DHT22;6639;50.956;4.242;2024-01-10T07:05:31;2.10;91.20
13148;DHT22;6639;50.956;4.242;2024-01-10T07:07:59;2.00;91.20
13148;DHT22;6639;50.956;4.242;2024-01-10T07:10:28;2.10;91.50
13148;DHT22;6639;50.956;4.242;2024-01-10T07:12:55;2.00;91.50
13148;DHT22;6639;50.956;4.242;2024-01-10T07:15:22;2.00;91.40
13148;DHT22;6639;50.956;4.242;2024-01-10T07:17:50;2.00;91.20
13148;DHT22;6639;50.956;4.242;2024-01-10T07:20:17;2.10;91.50
13148;DHT22;6639;50.956;4.242;2024-01-10T07:22:44;2.30;91.10
13148;DHT22;6639;50.956;4.242;2024-01-10T07:25:11;2.20;91.10
13148;DHT22;6639;50.956;4.242;2024-01-10T07:27:39;2.30;91.10
13148;DHT22;6639;50.956;4.242;2024-01-10T07:30:07;2.00;91.20
13148;DHT22;6639;50.956;4.242;2024-01-10T07:32:39;2.20;91.40
13148;DHT22;6639;50.956;4.242;2024-01-10T07:35:09;2.00;91.70
13148;DHT22;6639;50.956;4.242;2024-01-10T07:37:36;2.10;90.90
13148;DHT22;6639;50.956;4.242;2024-01-10T07:40:04;2.10;91.60
13148;DHT22;6639;50.956;4.242;2024-01-10T07:42:32;2.00;91.10
13148;DHT22;6639;50.956;4.242;2024-01-10T07:44:59;1.90;91.60
13148;DHT22;6639;50.956;4.242;2024-01-10T07:47:29;2.40;91.70
13148;DHT22;6639;50.956;4.242;2024-01-10T07:49:56;2.30;90.80
13148;DHT22;6639;50.956;4.242;2024-01-10T07:52:24;2.60;90.90
13148;DHT22;6639;50.956;4.242;2024-01-10T07:54:51;2.40;90.80
13148;DHT22;6639;50.956;4.242;2024-01-10T07:57:18;2.30;91.20
13148;DHT22;6639;50.956;4.242;2024-01-10T07:59:45;2.30;91.40
13148;DHT22;6639;50.956;4.242;2024-01-10T08:02:13;2.30;91.40
13148;DHT22;6639;50.956;4.242;2024-01-10T08:04:39;2.40;90.80
13148;DHT22;6639;50.956;4.242;2024-01-10T08:07:06;2.60;91.20
13148;DHT22;6639;50.956;4.242;2024-01-10T08:09:35;2.40;90.90
13148;DHT22;6639;50.956;4.242;2024-01-10T08:12:02;2.00;91.40
13148;DHT22;6639;50.956;4.242;2024-01-10T08:14:29;1.90;91.60
13148;DHT22;6639;50.956;4.242;2024-01-10T08:16:56;1.10;92.20
13148;DHT22;6639;50.956;4.242;2024-01-10T08:19:24;0.90;93.10
13148;DHT22;6639;50.956;4.242;2024-01-10T08:21:51;1.20;93.50
13148;DHT22;6639;50.956;4.242;2024-01-10T08:24:18;1.40;93.10
13148;DHT22;6639;50.956;4.242;2024-01-10T08:26:48;1.50;93.40
13148;DHT22;6639;50.956;4.242;2024-01-10T08:29:17;1.60;93.00
13148;DHT22;6639;50.956;4.242;2024-01-10T08:31:44;2.10;93.10
13148;DHT22;6639;50.956;4.242;2024-01-10T08:34:11;2.10;92.60
13148;DHT22;6639;50.956;4.242;2024-01-10T08:36:38;1.60;92.70
13148;DHT22;6639;50.956;4.242;2024-01-10T08:39:05;1.30;93.50
13148;DHT22;6639;50.956;4.242;2024-01-10T08:41:32;1.50;94.10
13148;DHT22;6639;50.956;4.242;2024-01-10T08:44:00;2.10;93.60
13148;DHT22;6639;50.956;4.242;2024-01-10T08:46:28;2.20;92.50
13148;DHT22;6639;50.956;4.242;2024-01-10T08:48:55;2.00;92.40
13148;DHT22;6639;50.956;4.242;2024-01-10T08:51:22;2.10;92.80
13148;DHT22;6639;50.956;4.242;2024-01-10T08:53:49;1.80;92.50
13148;DHT22;6639;50.956;4.242;2024-01-10T08:56:16;1.80;93.10
13148;DHT22;6639;50.956;4.242;2024-01-10T08:58:43;1.70;93.70
13148;DHT22;6639;50.956;4.242;2024-01-10T09:01:11;1.70;93.40
13148;DHT22;6639;50.956;4.242;2024-01-10T09:03:38;1.70;94.70
13148;DHT22;6639;50.956;4.242;2024-01-10T09:06:06;2.10;93.90
13148;DHT22;6639;50.956;4.242;2024-01-10T09:08:34;1.80;93.80
13148;DHT22;6639;50.956;4.242;2024-01-10T09:11:01;1.90;94.00
13148;DHT22;6639;50.956;4.242;2024-01-10T09:13:28;2.40;93.80
13148;DHT22;6639;50.956;4.242;2024-01-10T09:15:55;2.10;93.10
13148;DHT22;6639;50.956;4.242;2024-01-10T09:18:23;1.80;93.80
13148;DHT22;6639;50.956;4.242;2024-01-10T09:20:50;1.60;93.90
13148;DHT22;6639;50.956;4.242;2024-01-10T09:23:17;1.60;94.30
13148;DHT22;6639;50.956;4.242;2024-01-10T09:25:44;1.70;94.60
13148;DHT22;6639;50.956;4.242;2024-01-10T09:28:11;2.00;93.70
13148;DHT22;6639;50.956;4.242;2024-01-10T09:30:39;1.90;94.30
13148;DHT22;6639;50.956;4.242;2024-01-10T09:33:06;2.40;93.70
13148;DHT22;6639;50.956;4.242;2024-01-10T09:35:34;3.00;93.40
13148;DHT22;6639;50.956;4.242;2024-01-10T09:38:01;3.50;92.60
13148;DHT22;6639;50.956;4.242;2024-01-10T09:40:28;3.60;92.80
13148;DHT22;6639;50.956;4.242;2024-01-10T09:42:55;4.30;92.10
13148;DHT22;6639;50.956;4.242;2024-01-10T09:45:23;4.20;90.50
13148;DHT22;6639;50.956;4.242;2024-01-10T09:47:55;3.90;90.30
13148;DHT22;6639;50.956;4.242;2024-01-10T09:50:22;3.50;91.00
13148;DHT22;6639;50.956;4.242;2024-01-10T09:52:56;4.50;91.30
13148;DHT22;6639;50.956;4.242;2024-01-10T09:55:26;4.30;89.60
13148;DHT22;6639;50.956;4.242;2024-01-10T09:57:55;4.00;90.50
13148;DHT22;6639;50.956;4.242;2024-01-10T10:00:23;4.50;90.70
13148;DHT22;6639;50.956;4.242;2024-01-10T10:02:52;4.40;89.50
13148;DHT22;6639;50.956;4.242;2024-01-10T10:05:22;4.40;89.80
13148;DHT22;6639;50.956;4.242;2024-01-10T10:07:50;4.60;90.10
13148;DHT22;6639;50.956;4.242;2024-01-10T10:10:20;4.90;89.50
13148;DHT22;6639;50.956;4.242;2024-01-10T10:12:48;4.60;88.90
13148;DHT22;6639;50.956;4.242;2024-01-10T10:15:19;4.60;89.70
13148;DHT22;6639;50.956;4.242;2024-01-10T10:17:47;5.40;90.10
13148;DHT22;6639;50.956;4.242;2024-01-10T10:20:20;6.00;89.60
13148;DHT22;6639;50.956;4.242;2024-01-10T10:22:59;6.00;86.80
13148;DHT22;6639;50.956;4.242;2024-01-10T10:25:44;6.10;86.60
13148;DHT22;6639;50.956;4.242;2024-01-10T10:28:13;5.70;85.20
13148;DHT22;6639;50.956;4.242;2024-01-10T10:30:40;5.70;87.40
13148;DHT22;6639;50.956;4.242;2024-01-10T10:33:06;5.80;86.50
13148;DHT22;6639;50.956;4.242;2024-01-10T10:35:34;5.50;87.20
13148;DHT22;6639;50.956;4.242;2024-01-10T10:38:01;6.00;86.30
13148;DHT22;6639;50.956;4.242;2024-01-10T10:40:30;6.00;86.10
13148;DHT22;6639;50.956;4.242;2024-01-10T10:42:57;6.50;86.70
13148;DHT22;6639;50.956;4.242;2024-01-10T10:45:25;6.20;83.70
13148;DHT22;6639;50.956;4.242;2024-01-10T10:47:57;6.10;85.10
13148;DHT22;6639;50.956;4.242;2024-01-10T10:50:28;6.20;85.30
13148;DHT22;6639;50.956;4.242;2024-01-10T10:52:57;6.50;84.70
13148;DHT22;6639;50.956;4.242;2024-01-10T10:55:25;7.20;83.60
13148;DHT22;6639;50.956;4.242;2024-01-10T10:57:55;7.20;82.40
13148;DHT22;6639;50.956;4.242;2024-01-10T11:00:24;7.10;84.80
13148;DHT22;6639;50.956;4.242;2024-01-10T11:02:53;7.30;84.20
13148;DHT22;6639;50.956;4.242;2024-01-10T11:05:20;7.30;82.70
13148;DHT22;6639;50.956;4.242;2024-01-10T11:07:48;7.20;83.50
13148;DHT22;6639;50.956;4.242;2024-01-10T11:10:19;7.60;82.20
13148;DHT22;6639;50.956;4.242;2024-01-10T11:13:03;7.20;81.60
13148;DHT22;6639;50.956;4.242;2024-01-10T11:15:50;7.50;83.40
13148;DHT22;6639;50.956;4.242;2024-01-10T11:18:33;7.30;80.70
13148;DHT22;6639;50.956;4.242;2024-01-10T11:21:18;7.20;80.80
13148;DHT22;6639;50.956;4.242;2024-01-10T11:23:53;7.40;80.50
13148;DHT22;6639;50.956;4.242;2024-01-10T11:26:21;7.20;80.30
13148;DHT22;6639;50.956;4.242;2024-01-10T11:28:50;7.60;81.30
13148;DHT22;6639;50.956;4.242;2024-01-10T11:31:27;7.30;80.30
13148;DHT22;6639;50.956;4.242;2024-01-10T11:33:56;7.20;80.80
13148;DHT22;6639;50.956;4.242;2024-01-10T11:36:23;7.60;82.30
13148;DHT22;6639;50.956;4.242;2024-01-10T11:38:58;8.10;81.80
13148;DHT22;6639;50.956;4.242;2024-01-10T11:41:28;8.30;81.10
13148;DHT22;6639;50.956;4.242;2024-01-10T11:44:28;9.10;80.90
13148;DHT22;6639;50.956;4.242;2024-01-10T11:46:56;8.70;78.10
13148;DHT22;6639;50.956;4.242;2024-01-10T11:49:24;8.20;80.00
13148;DHT22;6639;50.956;4.242;2024-01-10T11:51:53;7.70;78.50
13148;DHT22;6639;50.956;4.242;2024-01-10T11:54:42;7.10;80.80
13148;DHT22;6639;50.956;4.242;2024-01-10T11:57:11;6.80;79.60
13148;DHT22;6639;50.956;4.242;2024-01-10T11:59:41;6.60;79.50
13148;DHT22;6639;50.956;4.242;2024-01-10T12:02:08;6.50;80.30
13148;DHT22;6639;50.956;4.242;2024-01-10T12:04:35;7.30;82.00
13148;DHT22;6639;50.956;4.242;2024-01-10T12:07:03;7.60;81.80
13148;DHT22;6639;50.956;4.242;2024-01-10T12:09:30;7.70;78.20
13148;DHT22;6639;50.956;4.242;2024-01-10T12:11:58;7.40;77.50
13148;DHT22;6639;50.956;4.242;2024-01-10T12:14:25;7.00;79.20
13148;DHT22;6639;50.956;4.242;2024-01-10T12:16:53;7.00;80.10
13148;DHT22;6639;50.956;4.242;2024-01-10T12:19:20;7.20;80.40
13148;DHT22;6639;50.956;4.242;2024-01-10T12:21:48;6.80;80.30
13148;DHT22;6639;50.956;4.242;2024-01-10T12:24:15;6.90;82.20
13148;DHT22;6639;50.956;4.242;2024-01-10T12:26:45;7.10;80.30
13148;DHT22;6639;50.956;4.242;2024-01-10T12:29:13;7.50;79.80
13148;DHT22;6639;50.956;4.242;2024-01-10T12:31:40;7.30;78.20
13148;DHT22;6639;50.956;4.242;2024-01-10T12:34:09;7.40;79.80
13148;DHT22;6639;50.956;4.242;2024-01-10T12:36:36;7.70;78.50
13148;DHT22;6639;50.956;4.242;2024-01-10T12:39:03;7.90;79.70
13148;DHT22;6639;50.956;4.242;2024-01-10T12:41:33;8.30;77.00
13148;DHT22;6639;50.956;4.242;2024-01-10T12:44:00;7.70;77.50
13148;DHT22;6639;50.956;4.242;2024-01-10T12:46:29;7.60;78.00
13148;DHT22;6639;50.956;4.242;2024-01-10T12:49:00;7.50;78.80
13148;DHT22;6639;50.956;4.242;2024-01-10T12:51:29;7.00;77.80
13148;DHT22;6639;50.956;4.242;2024-01-10T12:53:57;6.60;81.00
13148;DHT22;6639;50.956;4.242;2024-01-10T12:56:25;6.20;78.20
13148;DHT22;6639;50.956;4.242;2024-01-10T12:58:53;6.30;80.10
13148;DHT22;6639;50.956;4.242;2024-01-10T13:01:21;6.50;80.30
13148;DHT22;6639;50.956;4.242;2024-01-10T13:03:48;7.00;80.60
13148;DHT22;6639;50.956;4.242;2024-01-10T13:06:15;7.30;80.20
13148;DHT22;6639;50.956;4.242;2024-01-10T13:08:45;6.80;78.40
13148;DHT22;6639;50.956;4.242;2024-01-10T13:11:12;5.90;79.90
13148;DHT22;6639;50.956;4.242;2024-01-10T13:13:40;5.80;80.40
13148;DHT22;6639;50.956;4.242;2024-01-10T13:16:09;5.40;80.00
13148;DHT22;6639;50.956;4.242;2024-01-10T13:18:36;5.80;81.40
13148;DHT22;6639;50.956;4.242;2024-01-10T13:21:04;5.30;81.30
13148;DHT22;6639;50.956;4.242;2024-01-10T13:23:31;5.30;82.70
13148;DHT22;6639;50.956;4.242;2024-01-10T13:26:00;5.40;82.70
13148;DHT22;6639;50.956;4.242;2024-01-10T13:28:28;5.40;83.20
13148;DHT22;6639;50.956;4.242;2024-01-10T13:30:55;5.90;81.30
13148;DHT22;6639;50.956;4.242;2024-01-10T13:33:22;5.80;82.70
13148;DHT22;6639;50.956;4.242;2024-01-10T13:35:51;6.40;83.90
13148;DHT22;6639;50.956;4.242;2024-01-10T13:38:19;6.90;80.30
13148;DHT22;6639;50.956;4.242;2024-01-10T13:40:46;6.20;79.90
13148;DHT22;6639;50.956;4.242;2024-01-10T13:43:14;6.20;83.10
13148;DHT22;6639;50.956;4.242;2024-01-10T13:45:43;6.30;81.30
13148;DHT22;6639;50.956;4.242;2024-01-10T13:48:10;6.10;81.60
13148;DHT22;6639;50.956;4.242;2024-01-10T13:50:37;6.30;81.60
13148;DHT22;6639;50.956;4.242;2024-01-10T13:53:04;6.70;81.40
13148;DHT22;6639;50.956;4.242;2024-01-10T13:55:31;6.20;80.00
13148;DHT22;6639;50.956;4.242;2024-01-10T13:57:58;6.20;83.10
13148;DHT22;6639;50.956;4.242;2024-01-10T14:00:26;6.60;81.30
13148;DHT22;6639;50.956;4.242;2024-01-10T14:02:53;6.30;81.30
13148;DHT22;6639;50.956;4.242;2024-01-10T14:05:25;6.70;81.60
13148;DHT22;6639;50.956;4.242;2024-01-10T14:07:52;7.30;80.00
13148;DHT22;6639;50.956;4.242;2024-01-10T14:10:19;6.70;78.90
13148;DHT22;6639;50.956;4.242;2024-01-10T14:12:47;6.20;80.30
13148;DHT22;6639;50.956;4.242;2024-01-10T14:15:14;6.10;80.80
13148;DHT22;6639;50.956;4.242;2024-01-10T14:17:43;5.70;82.10
13148;DHT22;6639;50.956;4.242;2024-01-10T14:20:10;5.60;82.20
13148;DHT22;6639;50.956;4.242;2024-01-10T14:22:39;5.10;82.60
13148;DHT22;6639;50.956;4.242;2024-01-10T14:25:08;4.60;83.70
13148;DHT22;6639;50.956;4.242;2024-01-10T14:27:36;4.80;84.50
13148;DHT22;6639;50.956;4.242;2024-01-10T14:30:06;5.20;84.90
13148;DHT22;6639;50.956;4.242;2024-01-10T14:32:34;5.50;84.00
13148;DHT22;6639;50.956;4.242;2024-01-10T14:35:03;5.60;83.00
13148;DHT22;6639;50.956;4.242;2024-01-10T14:37:31;5.30;84.70
13148;DHT22;6639;50.956;4.242;2024-01-10T14:40:01;5.00;84.10
13148;DHT22;6639;50.956;4.242;2024-01-10T14:42:28;5.00;84.30
13148;DHT22;6639;50.956;4.242;2024-01-10T14:44:55;5.60;84.80
13148;DHT22;6639;50.956;4.242;2024-01-10T14:47:23;5.70;83.90
13148;DHT22;6639;50.956;4.242;2024-01-10T14:49:50;5.80;82.30
13148;DHT22;6639;50.956;4.242;2024-01-10T14:52:19;5.60;84.10
13148;DHT22;6639;50.956;4.242;2024-01-10T14:54:46;5.10;84.90
13148;DHT22;6639;50.956;4.242;2024-01-10T14:57:13;5.20;84.80
13148;DHT22;6639;50.956;4.242;2024-01-10T14:59:40;5.40;84.80
13148;DHT22;6639;50.956;4.242;2024-01-10T15:02:07;5.70;84.90
13148;DHT22;6639;50.956;4.242;2024-01-10T15:04:37;5.70;83.20
13148;DHT22;6639;50.956;4.242;2024-01-10T15:07:05;5.10;84.10
13148;DHT22;6639;50.956;4.242;2024-01-10T15:09:33;5.10;86.00
13148;DHT22;6639;50.956;4.242;2024-01-10T15:12:03;5.20;86.10
13148;DHT22;6639;50.956;4.242;2024-01-10T15:14:33;5.70;85.10
13148;DHT22;6639;50.956;4.242;2024-01-10T15:17:00;5.80;84.10
13148;DHT22;6639;50.956;4.242;2024-01-10T15:19:29;5.70;84.50
13148;DHT22;6639;50.956;4.242;2024-01-10T15:21:57;6.00;84.80
13148;DHT22;6639;50.956;4.242;2024-01-10T15:24:25;7.00;84.10
13148;DHT22;6639;50.956;4.242;2024-01-10T15:26:53;6.60;81.20
13148;DHT22;6639;50.956;4.242;2024-01-10T15:29:21;5.80;83.20
13148;DHT22;6639;50.956;4.242;2024-01-10T15:31:48;6.40;84.50
13148;DHT22;6639;50.956;4.242;2024-01-10T15:34:15;6.40;82.90
13148;DHT22;6639;50.956;4.242;2024-01-10T15:36:43;6.20;83.00
13148;DHT22;6639;50.956;4.242;2024-01-10T15:39:10;5.80;83.30
13148;DHT22;6639;50.956;4.242;2024-01-10T15:41:38;6.00;84.70
13148;DHT22;6639;50.956;4.242;2024-01-10T15:44:06;5.60;84.50
13148;DHT22;6639;50.956;4.242;2024-01-10T15:46:35;5.60;84.90
13148;DHT22;6639;50.956;4.242;2024-01-10T15:49:02;6.10;84.00
13148;DHT22;6639;50.956;4.242;2024-01-10T15:51:29;6.70;83.70
13148;DHT22;6639;50.956;4.242;2024-01-10T15:53:57;7.10;83.20
13148;DHT22;6639;50.956;4.242;2024-01-10T15:56:25;7.20;82.50
13148;DHT22;6639;50.956;4.242;2024-01-10T15:58:52;7.30;83.30
13148;DHT22;6639;50.956;4.242;2024-01-10T16:01:20;7.60;82.70
13148;DHT22;6639;50.956;4.242;2024-01-10T16:03:47;7.20;82.40
13148;DHT22;6639;50.956;4.242;2024-01-10T16:06:14;7.30;82.30
13148;DHT22;6639;50.956;4.242;2024-01-10T16:08:42;7.40;82.00